METAR Data

Data at: 1104 UTC 21 Apr 2021

METAR for:KGHG (Marshfield Muni, MA, US)
Text:KGHG 211055Z AUTO 21009KT 10SM CLR 12/10 A2984 RMK AO2 TSNO
Temperature: 12.0°C ( 54°F)
Dewpoint: 10.0°C ( 50°F) [RH = 88%]
Pressure (altimeter):29.84 inches Hg (1010.6 mb)
Winds:from the SSW (210 degrees) at 10 MPH (9 knots; 4.6 m/s)
Visibility:10 or more sm (16+ km)
Ceiling:at least 12,000 feet AGL
Clouds:sky clear below 12,000 feet AGL
QC Flag:automated observation with no human augmentation